createdAt,value
2018-03-30T00:00:15.389Z,3.96
2018-03-30T00:01:15.365Z,4.06
2018-03-30T00:02:15.351Z,3.96
2018-03-30T00:03:15.334Z,3.99
2018-03-30T00:04:15.314Z,4.11
2018-03-30T00:05:15.301Z,3.96
2018-03-30T00:06:15.285Z,3.96
2018-03-30T00:07:15.264Z,3.90
2018-03-30T00:08:15.248Z,3.93
2018-03-30T00:09:15.233Z,3.88
2018-03-30T00:10:15.213Z,3.89
2018-03-30T00:11:15.201Z,3.86
2018-03-30T00:12:15.183Z,3.92
2018-03-30T00:13:15.176Z,4.07
2018-03-30T00:14:15.157Z,4.06
2018-03-30T00:15:15.137Z,3.89
2018-03-30T00:16:15.122Z,3.98
2018-03-30T00:17:15.106Z,4.00
2018-03-30T00:18:15.089Z,4.11
2018-03-30T00:19:15.070Z,4.13
2018-03-30T00:20:15.052Z,4.07
2018-03-30T00:21:15.037Z,4.08
2018-03-30T00:22:15.019Z,4.06
2018-03-30T00:23:15.009Z,3.99
2018-03-30T00:24:14.987Z,3.98
2018-03-30T00:25:14.972Z,3.90
2018-03-30T00:26:14.955Z,3.92
2018-03-30T00:27:14.939Z,3.96
2018-03-30T00:28:14.928Z,3.81
2018-03-30T00:29:14.904Z,3.82
2018-03-30T00:30:14.898Z,3.86
2018-03-30T00:31:14.880Z,3.81
2018-03-30T00:32:14.858Z,3.77
2018-03-30T00:33:14.845Z,3.88
2018-03-30T00:34:14.832Z,3.82
2018-03-30T00:35:14.806Z,3.74
2018-03-30T00:36:14.794Z,3.84
2018-03-30T00:37:14.780Z,3.98
2018-03-30T00:38:14.760Z,3.92
2018-03-30T00:39:14.740Z,3.92
2018-03-30T00:40:14.725Z,3.98
2018-03-30T00:41:14.715Z,4.08
2018-03-30T00:42:14.693Z,4.02
2018-03-30T00:43:14.676Z,3.95
2018-03-30T00:44:14.666Z,3.95
2018-03-30T00:45:14.649Z,3.92
2018-03-30T00:46:14.627Z,3.82
2018-03-30T00:47:14.619Z,3.81
2018-03-30T00:48:14.593Z,3.81
2018-03-30T00:49:14.576Z,3.82
2018-03-30T00:50:14.562Z,3.80
2018-03-30T00:51:14.552Z,3.77
2018-03-30T00:52:14.536Z,3.84
2018-03-30T00:53:14.513Z,3.81
2018-03-30T00:54:14.496Z,3.88
2018-03-30T00:55:14.483Z,3.84
2018-03-30T00:56:14.462Z,3.82
2018-03-30T00:57:14.443Z,3.74
2018-03-30T00:58:14.427Z,3.67
2018-03-30T00:59:14.468Z,3.72
2018-03-30T01:00:14.396Z,3.70
2018-03-30T01:01:14.380Z,3.57
2018-03-30T01:02:14.359Z,3.57
2018-03-30T01:03:14.352Z,3.56
2018-03-30T01:04:14.330Z,3.53
2018-03-30T01:05:14.313Z,3.49
2018-03-30T01:06:14.301Z,3.57
2018-03-30T01:07:14.280Z,3.50
2018-03-30T01:08:14.273Z,3.60
2018-03-30T01:09:14.245Z,3.54
2018-03-30T01:10:14.228Z,3.57
2018-03-30T01:11:14.219Z,3.46
2018-03-30T01:12:14.195Z,3.44
2018-03-30T01:13:14.179Z,3.52
2018-03-30T01:14:14.167Z,3.49
2018-03-30T01:15:14.151Z,3.44
2018-03-30T01:16:14.129Z,3.42
2018-03-30T01:17:14.113Z,3.46
2018-03-30T01:18:14.095Z,3.46
2018-03-30T01:19:14.084Z,3.41
2018-03-30T01:20:14.068Z,3.46
2018-03-30T01:21:14.053Z,3.50
2018-03-30T01:22:14.028Z,3.44
2018-03-30T01:23:14.018Z,3.41
2018-03-30T01:24:13.997Z,3.45
2018-03-30T01:25:13.980Z,3.45
2018-03-30T01:26:13.966Z,3.44
2018-03-30T01:27:13.945Z,3.37
2018-03-30T01:28:13.929Z,3.37
2018-03-30T01:29:13.912Z,3.42
2018-03-30T01:30:13.895Z,3.42
2018-03-30T01:31:13.882Z,3.33
2018-03-30T01:32:13.868Z,3.33
2018-03-30T01:33:13.845Z,3.33
2018-03-30T01:34:13.830Z,3.46
2018-03-30T01:35:13.814Z,3.46
2018-03-30T01:36:13.796Z,3.39
2018-03-30T01:37:13.776Z,3.31
2018-03-30T01:38:13.767Z,3.42
2018-03-30T01:39:13.746Z,3.42
2018-03-30T01:40:13.736Z,3.39
2018-03-30T01:41:13.721Z,3.45
2018-03-30T01:42:13.696Z,3.41
2018-03-30T01:43:13.682Z,3.41
2018-03-30T01:44:13.663Z,3.42
2018-03-30T01:45:13.646Z,3.41
2018-03-30T01:46:13.628Z,3.39
2018-03-30T01:47:13.613Z,3.34
2018-03-30T01:48:13.601Z,3.37
2018-03-30T01:49:13.581Z,3.31
2018-03-30T01:50:13.568Z,3.39
2018-03-30T01:51:13.546Z,3.34
2018-03-30T01:52:13.531Z,3.34
2018-03-30T01:53:13.520Z,3.39
2018-03-30T01:54:13.494Z,3.34
2018-03-30T01:55:13.478Z,3.44
2018-03-30T01:56:13.459Z,3.37
2018-03-30T01:57:13.454Z,3.37
2018-03-30T01:58:13.433Z,3.44
2018-03-30T01:59:13.410Z,3.33
2018-03-30T02:00:13.392Z,3.39
2018-03-30T02:01:13.377Z,3.37
2018-03-30T02:02:13.358Z,3.39
2018-03-30T02:03:13.345Z,3.42
2018-03-30T02:04:13.325Z,3.46
2018-03-30T02:05:13.309Z,3.50
2018-03-30T02:06:13.298Z,3.49
2018-03-30T02:07:13.276Z,3.41
2018-03-30T02:08:13.268Z,3.44
2018-03-30T02:09:13.244Z,3.50
2018-03-30T02:10:13.232Z,3.62
2018-03-30T02:11:13.208Z,3.52
2018-03-30T02:12:13.194Z,3.70
2018-03-30T02:13:13.182Z,3.75
2018-03-30T02:14:13.171Z,3.72
2018-03-30T02:15:13.144Z,3.92
2018-03-30T02:16:13.126Z,3.92
2018-03-30T02:17:13.107Z,3.96
2018-03-30T02:18:13.092Z,3.93
2018-03-30T02:19:13.075Z,4.02
2018-03-30T02:20:13.059Z,4.00
2018-03-30T02:21:13.042Z,4.04
2018-03-30T02:22:13.034Z,4.16
2018-03-30T02:23:13.008Z,4.32
2018-03-30T02:24:12.993Z,4.43
2018-03-30T02:25:12.982Z,4.56
2018-03-30T02:26:12.960Z,4.69
2018-03-30T02:27:12.951Z,4.64
2018-03-30T02:28:12.927Z,4.91
2018-03-30T02:29:12.910Z,4.91
2018-03-30T02:30:12.900Z,4.96
2018-03-30T02:31:12.883Z,5.05
2018-03-30T02:32:12.862Z,5.08
2018-03-30T02:33:12.851Z,5.15
2018-03-30T02:34:12.833Z,5.14
2018-03-30T02:35:12.816Z,5.23
2018-03-30T02:36:12.808Z,5.24
2018-03-30T02:37:12.778Z,5.27
2018-03-30T02:38:12.770Z,5.32
2018-03-30T02:39:12.751Z,5.20
2018-03-30T02:40:12.736Z,5.20
2018-03-30T02:41:12.715Z,5.30
2018-03-30T02:42:12.696Z,5.24
2018-03-30T02:43:12.680Z,5.23
2018-03-30T02:44:12.665Z,5.23
2018-03-30T02:45:12.653Z,5.14
2018-03-30T02:46:12.635Z,5.17
2018-03-30T02:47:12.621Z,5.08
2018-03-30T02:48:12.602Z,4.99
2018-03-30T02:49:12.579Z,4.94
2018-03-30T02:50:12.571Z,4.80
2018-03-30T02:51:12.549Z,4.80
2018-03-30T02:52:12.530Z,4.77
2018-03-30T02:53:12.518Z,4.64
2018-03-30T02:54:12.514Z,4.49
2018-03-30T02:55:12.482Z,4.53
2018-03-30T02:56:12.465Z,4.43
2018-03-30T02:57:12.448Z,4.25
2018-03-30T02:58:12.432Z,4.38
2018-03-30T02:59:12.420Z,4.32
2018-03-30T03:00:12.400Z,4.36
2018-03-30T03:01:12.384Z,4.35
2018-03-30T03:02:12.376Z,4.29
2018-03-30T03:03:12.352Z,4.34
2018-03-30T03:04:12.337Z,4.36
2018-03-30T03:05:12.315Z,4.42
2018-03-30T03:06:12.302Z,4.38
2018-03-30T03:07:12.292Z,4.46
2018-03-30T03:08:12.272Z,4.47
2018-03-30T03:09:12.248Z,4.43
2018-03-30T03:10:12.243Z,4.54
2018-03-30T03:11:12.223Z,4.59
2018-03-30T03:12:12.206Z,4.49
2018-03-30T03:13:12.184Z,4.50
2018-03-30T03:14:12.168Z,4.49
2018-03-30T03:15:12.155Z,4.49
2018-03-30T03:16:12.141Z,4.65
2018-03-30T03:17:12.118Z,4.57
2018-03-30T03:18:12.102Z,4.38
2018-03-30T03:19:12.086Z,4.44
2018-03-30T03:20:12.078Z,4.34
2018-03-30T03:21:12.058Z,4.31
2018-03-30T03:22:12.036Z,4.18
2018-03-30T03:23:12.020Z,4.26
2018-03-30T03:24:12.010Z,4.16
2018-03-30T03:25:11.991Z,4.18
2018-03-30T03:26:11.973Z,4.18
2018-03-30T03:27:11.952Z,4.28
2018-03-30T03:28:11.938Z,4.29
2018-03-30T03:29:11.918Z,4.31
2018-03-30T03:30:11.912Z,4.32
2018-03-30T03:31:11.892Z,4.35
2018-03-30T03:32:11.871Z,4.38
2018-03-30T03:33:11.852Z,4.21
2018-03-30T03:34:11.835Z,4.17
2018-03-30T03:35:11.827Z,4.14
2018-03-30T03:36:11.888Z,4.17
2018-03-30T03:37:11.786Z,4.17
2018-03-30T03:38:11.768Z,4.20
2018-03-30T03:39:11.751Z,4.17
2018-03-30T03:40:11.737Z,4.17
2018-03-30T03:41:11.725Z,4.18
2018-03-30T03:42:11.708Z,4.13
2018-03-30T03:43:11.688Z,4.08
2018-03-30T03:44:11.669Z,4.20
2018-03-30T03:45:11.650Z,4.25
2018-03-30T03:46:11.636Z,4.21
2018-03-30T03:47:11.622Z,4.16
2018-03-30T03:48:11.607Z,4.25
2018-03-30T03:49:11.584Z,4.32
2018-03-30T03:50:11.568Z,4.34
2018-03-30T03:51:11.552Z,4.43
2018-03-30T03:52:11.541Z,4.46
2018-03-30T03:53:11.518Z,4.59
2018-03-30T03:54:11.509Z,4.61
2018-03-30T03:55:11.483Z,4.75
2018-03-30T03:56:11.466Z,4.65
2018-03-30T03:57:11.450Z,4.68
2018-03-30T03:58:11.433Z,4.67
2018-03-30T03:59:11.414Z,4.77
2018-03-30T04:00:11.409Z,4.65
2018-03-30T04:01:11.387Z,4.68
2018-03-30T04:02:11.372Z,4.68
2018-03-30T04:03:11.346Z,4.59
2018-03-30T04:04:11.337Z,4.54
2018-03-30T04:05:11.315Z,4.61
2018-03-30T04:06:11.296Z,4.61
2018-03-30T04:07:11.279Z,4.61
2018-03-30T04:08:11.267Z,4.56
2018-03-30T04:09:11.248Z,4.56
2018-03-30T04:10:11.230Z,4.67
2018-03-30T04:11:11.217Z,4.65
2018-03-30T04:12:11.196Z,4.69
2018-03-30T04:13:11.180Z,4.65
2018-03-30T04:14:11.164Z,4.68
2018-03-30T04:15:11.148Z,4.68
2018-03-30T04:16:11.126Z,4.61
2018-03-30T04:17:11.109Z,4.50
2018-03-30T04:18:11.093Z,4.47
2018-03-30T04:19:11.074Z,4.36
2018-03-30T04:20:11.065Z,4.16
2018-03-30T04:21:11.040Z,3.95
2018-03-30T04:22:11.027Z,3.90
2018-03-30T04:23:11.006Z,3.84
2018-03-30T04:24:10.994Z,3.70
2018-03-30T04:25:10.971Z,3.71
2018-03-30T04:26:10.957Z,3.80
2018-03-30T04:27:10.963Z,3.84
2018-03-30T04:28:10.920Z,3.74
2018-03-30T04:29:10.901Z,3.78
2018-03-30T04:30:10.890Z,3.78
2018-03-30T04:31:10.873Z,3.96
2018-03-30T04:32:10.849Z,3.92
2018-03-30T04:33:10.832Z,3.99
2018-03-30T04:34:10.820Z,4.10
2018-03-30T04:35:10.808Z,4.13
2018-03-30T04:36:10.782Z,4.13
2018-03-30T04:37:10.767Z,4.24
2018-03-30T04:38:10.751Z,4.20
2018-03-30T04:39:10.725Z,4.35
2018-03-30T04:40:10.709Z,4.20
2018-03-30T04:41:10.700Z,4.25
2018-03-30T04:42:10.673Z,4.18
2018-03-30T04:43:10.656Z,4.17
2018-03-30T04:44:10.642Z,4.07
2018-03-30T04:45:10.628Z,3.95
2018-03-30T04:46:10.605Z,3.88
2018-03-30T04:47:10.593Z,3.82
2018-03-30T04:48:10.569Z,3.78
2018-03-30T04:49:10.554Z,3.77
2018-03-30T04:50:10.535Z,3.75
2018-03-30T04:51:10.517Z,3.74
2018-03-30T04:52:10.503Z,3.68
2018-03-30T04:53:10.484Z,3.71
2018-03-30T04:54:10.468Z,3.68
2018-03-30T04:55:10.451Z,3.70
2018-03-30T04:56:10.434Z,3.70
2018-03-30T04:57:10.426Z,3.57
2018-03-30T04:58:10.406Z,3.56
2018-03-30T04:59:10.387Z,3.57
2018-03-30T05:00:10.364Z,3.57
2018-03-30T05:01:10.350Z,3.56
2018-03-30T05:02:10.333Z,3.68
2018-03-30T05:03:10.313Z,3.75
2018-03-30T05:04:10.297Z,3.71
2018-03-30T05:05:10.277Z,3.75
2018-03-30T05:06:10.268Z,3.80
2018-03-30T05:07:10.249Z,3.86
2018-03-30T05:08:10.228Z,3.90
2018-03-30T05:09:10.208Z,3.80
2018-03-30T05:10:10.191Z,3.81
2018-03-30T05:11:10.184Z,3.78
2018-03-30T05:12:10.158Z,3.86
2018-03-30T05:13:10.141Z,3.81
2018-03-30T05:14:10.126Z,3.86
2018-03-30T05:15:10.113Z,3.78
2018-03-30T05:16:10.092Z,3.82
2018-03-30T05:17:10.074Z,3.81
2018-03-30T05:18:10.064Z,3.81
2018-03-30T05:19:10.042Z,3.96
2018-03-30T05:20:10.032Z,3.86
2018-03-30T05:21:10.006Z,3.75
2018-03-30T05:22:09.989Z,3.78
2018-03-30T05:23:09.982Z,3.86
2018-03-30T05:24:09.955Z,3.88
2018-03-30T05:25:09.951Z,3.86
2018-03-30T05:26:09.922Z,3.78
2018-03-30T05:27:09.906Z,3.81
2018-03-30T05:28:09.890Z,3.84
2018-03-30T05:29:09.870Z,3.92
2018-03-30T05:30:09.854Z,3.84
2018-03-30T05:31:09.837Z,3.82
2018-03-30T05:32:09.820Z,3.78
2018-03-30T05:33:09.804Z,3.86
2018-03-30T05:34:09.788Z,3.75
2018-03-30T05:35:09.775Z,3.92
2018-03-30T05:36:09.759Z,3.92
2018-03-30T05:37:09.744Z,3.89
2018-03-30T05:38:09.718Z,3.86
2018-03-30T05:39:09.703Z,3.99
2018-03-30T05:40:09.687Z,4.00
2018-03-30T05:41:09.669Z,4.10
2018-03-30T05:42:09.658Z,4.10
2018-03-30T05:43:09.634Z,4.11
2018-03-30T05:44:09.622Z,4.08
2018-03-30T05:45:09.602Z,4.10
2018-03-30T05:46:09.586Z,4.18
2018-03-30T05:47:09.575Z,4.16
2018-03-30T05:48:09.554Z,4.18
2018-03-30T05:49:09.536Z,4.20
2018-03-30T05:50:09.518Z,4.04
2018-03-30T05:51:09.507Z,4.11
2018-03-30T05:52:09.489Z,4.11
2018-03-30T05:53:09.469Z,4.16
2018-03-30T05:54:09.452Z,4.16
2018-03-30T05:55:09.438Z,4.18
2018-03-30T05:56:09.425Z,4.24
2018-03-30T05:57:09.409Z,4.34
2018-03-30T05:58:09.392Z,4.53
2018-03-30T05:59:09.369Z,4.64
2018-03-30T06:00:09.353Z,4.61
2018-03-30T06:01:09.336Z,4.54
2018-03-30T06:02:09.319Z,4.75
2018-03-30T06:03:09.307Z,4.77
2018-03-30T06:04:09.291Z,4.79
2018-03-30T06:05:09.270Z,4.77
2018-03-30T06:06:09.253Z,4.75
2018-03-30T06:07:09.239Z,4.83
2018-03-30T06:08:09.283Z,4.88
2018-03-30T06:09:09.203Z,4.97
2018-03-30T06:10:09.185Z,5.01
2018-03-30T06:11:09.172Z,5.01
2018-03-30T06:12:09.155Z,5.19
2018-03-30T06:13:09.144Z,5.11
2018-03-30T06:14:09.120Z,5.23
2018-03-30T06:15:09.114Z,5.42
2018-03-30T06:16:09.093Z,5.42
2018-03-30T06:17:09.070Z,5.42
2018-03-30T06:18:09.055Z,5.42
2018-03-30T06:19:09.121Z,5.35
2018-03-30T06:20:09.021Z,5.42
2018-03-30T06:21:09.012Z,5.41
2018-03-30T06:22:08.988Z,5.22
2018-03-30T06:23:08.977Z,5.09
2018-03-30T06:24:08.957Z,5.04
2018-03-30T06:25:08.940Z,4.99
2018-03-30T06:26:08.928Z,4.96
2018-03-30T06:27:08.908Z,4.91
2018-03-30T06:28:08.890Z,4.75
2018-03-30T06:29:08.878Z,4.83
2018-03-30T06:30:08.857Z,4.84
2018-03-30T06:31:08.842Z,4.83
2018-03-30T06:32:08.824Z,4.86
2018-03-30T06:33:08.812Z,4.86
2018-03-30T06:34:08.791Z,4.74
2018-03-30T06:35:08.771Z,4.87
2018-03-30T06:36:08.760Z,4.67
2018-03-30T06:37:08.738Z,4.86
2018-03-30T06:38:08.724Z,4.87
2018-03-30T06:39:08.710Z,4.80
2018-03-30T06:40:08.690Z,4.83
2018-03-30T06:41:08.687Z,4.83
2018-03-30T06:42:08.664Z,4.71
2018-03-30T06:43:08.651Z,4.79
2018-03-30T06:44:08.690Z,4.67
2018-03-30T06:45:08.620Z,4.83
2018-03-30T06:46:08.590Z,4.75
2018-03-30T06:47:08.579Z,4.61
2018-03-30T06:48:08.555Z,4.64
2018-03-30T06:49:08.543Z,4.67
2018-03-30T06:50:08.524Z,4.57
2018-03-30T06:51:08.506Z,4.69
2018-03-30T06:52:08.492Z,4.65
2018-03-30T06:53:08.475Z,4.75
2018-03-30T06:54:08.455Z,4.79
2018-03-30T06:55:08.439Z,4.84
2018-03-30T06:56:08.424Z,4.93
2018-03-30T06:57:08.407Z,5.12
2018-03-30T06:58:08.388Z,5.26
2018-03-30T06:59:08.374Z,5.29
2018-03-30T07:00:08.356Z,5.40
2018-03-30T07:01:08.341Z,5.49
2018-03-30T07:02:08.332Z,5.55
2018-03-30T07:03:08.319Z,5.63
2018-03-30T07:04:08.296Z,5.59
2018-03-30T07:05:08.273Z,5.56
2018-03-30T07:06:08.258Z,5.51
2018-03-30T07:07:08.247Z,5.51
2018-03-30T07:08:08.231Z,5.51
2018-03-30T07:09:08.229Z,5.51
2018-03-30T07:10:08.195Z,5.37
2018-03-30T07:11:08.180Z,5.35
2018-03-30T07:12:08.165Z,5.45
2018-03-30T07:13:08.145Z,5.37
2018-03-30T07:14:08.131Z,5.37
2018-03-30T07:15:08.115Z,5.40
2018-03-30T07:16:08.157Z,5.47
2018-03-30T07:17:08.075Z,5.49
2018-03-30T07:18:08.061Z,5.60
2018-03-30T07:19:08.043Z,5.56
2018-03-30T07:20:08.030Z,5.74
2018-03-30T07:21:08.018Z,5.70
2018-03-30T07:22:07.997Z,5.81
2018-03-30T07:23:07.985Z,5.80
2018-03-30T07:24:07.966Z,5.90
2018-03-30T07:25:07.945Z,5.81
2018-03-30T07:26:07.931Z,5.90
2018-03-30T07:27:07.918Z,5.96
2018-03-30T07:28:07.905Z,5.99
2018-03-30T07:29:07.891Z,5.93
2018-03-30T07:30:07.866Z,5.90
2018-03-30T07:31:07.850Z,5.90
2018-03-30T07:32:07.839Z,5.98
2018-03-30T07:33:07.824Z,5.99
2018-03-30T07:34:07.854Z,6.01
2018-03-30T07:35:07.788Z,6.08
2018-03-30T07:36:07.777Z,6.08
2018-03-30T07:37:07.756Z,6.06
2018-03-30T07:38:07.746Z,6.24
2018-03-30T07:39:07.729Z,6.21
2018-03-30T07:40:07.715Z,6.19
2018-03-30T07:41:07.692Z,6.25
2018-03-30T07:42:07.692Z,6.21
2018-03-30T07:43:07.662Z,6.36
2018-03-30T07:44:07.645Z,6.35
2018-03-30T07:45:07.637Z,6.30
2018-03-30T07:46:07.617Z,6.43
2018-03-30T07:47:07.601Z,6.51
2018-03-30T07:48:07.587Z,6.51
2018-03-30T07:49:07.568Z,6.63
2018-03-30T07:50:07.551Z,6.69
2018-03-30T07:51:07.542Z,6.81
2018-03-30T07:52:07.521Z,6.81
2018-03-30T07:53:07.513Z,6.69
2018-03-30T07:54:07.491Z,6.61
2018-03-30T07:55:07.476Z,6.68
2018-03-30T07:56:07.462Z,6.72
2018-03-30T07:57:07.451Z,6.78
2018-03-30T07:58:07.428Z,6.75
2018-03-30T07:59:07.414Z,6.73
2018-03-30T08:00:07.408Z,6.75
2018-03-30T08:01:07.387Z,6.82
2018-03-30T08:02:07.374Z,6.76
2018-03-30T08:03:07.358Z,6.90
2018-03-30T08:04:07.343Z,6.96
2018-03-30T08:05:07.333Z,7.04
2018-03-30T08:06:07.316Z,6.96
2018-03-30T08:07:07.295Z,6.99
2018-03-30T08:08:07.290Z,6.94
2018-03-30T08:09:07.327Z,6.86
2018-03-30T08:10:07.252Z,6.73
2018-03-30T08:11:07.234Z,6.68
2018-03-30T08:12:07.226Z,6.53
2018-03-30T08:13:07.211Z,6.40
2018-03-30T08:14:07.190Z,6.42
2018-03-30T08:15:07.174Z,6.48
2018-03-30T08:16:07.162Z,6.58
2018-03-30T08:17:07.152Z,6.57
2018-03-30T08:18:07.138Z,6.64
2018-03-30T08:19:07.117Z,6.68
2018-03-30T08:20:07.104Z,6.71
2018-03-30T08:21:07.123Z,6.61
2018-03-30T08:22:07.073Z,6.65
2018-03-30T08:23:07.057Z,6.71
2018-03-30T08:24:07.049Z,6.60
2018-03-30T08:25:07.026Z,6.65
2018-03-30T08:26:07.011Z,6.45
2018-03-30T08:27:06.998Z,6.64
2018-03-30T08:28:06.985Z,6.57
2018-03-30T08:29:06.965Z,6.64
2018-03-30T08:30:06.952Z,6.63
2018-03-30T08:31:06.937Z,6.60
2018-03-30T08:32:06.922Z,6.65
2018-03-30T08:33:06.906Z,6.71
2018-03-30T08:34:06.901Z,6.73
2018-03-30T08:35:06.878Z,6.75
2018-03-30T08:36:06.866Z,6.69
2018-03-30T08:37:06.847Z,6.63
2018-03-30T08:38:06.834Z,6.63
2018-03-30T08:39:06.818Z,6.76
2018-03-30T08:40:06.803Z,6.86
2018-03-30T08:41:06.793Z,6.96
2018-03-30T08:42:06.772Z,6.87
2018-03-30T08:43:06.758Z,6.83
2018-03-30T08:44:06.749Z,7.04
2018-03-30T08:45:06.727Z,7.11
2018-03-30T08:46:06.713Z,7.27
2018-03-30T08:47:06.699Z,7.37
2018-03-30T08:48:06.688Z,7.45
2018-03-30T08:49:06.669Z,7.52
2018-03-30T08:50:06.654Z,7.66
2018-03-30T08:51:06.646Z,7.63
2018-03-30T08:52:06.626Z,7.62
2018-03-30T08:53:06.622Z,7.67
2018-03-30T08:54:06.608Z,7.69
2018-03-30T08:55:06.587Z,7.66
2018-03-30T08:56:06.579Z,7.69
2018-03-30T08:57:06.556Z,7.81
2018-03-30T08:58:06.537Z,7.96
2018-03-30T08:59:06.525Z,7.82
2018-03-30T09:00:06.513Z,8.00
2018-03-30T09:01:06.495Z,8.10
2018-03-30T09:02:06.512Z,7.96
2018-03-30T09:03:06.466Z,7.86
2018-03-30T09:04:06.454Z,7.85
2018-03-30T09:05:06.438Z,7.77
2018-03-30T09:06:06.433Z,7.71
2018-03-30T09:07:06.418Z,7.58
2018-03-30T09:08:06.395Z,7.48
2018-03-30T09:09:06.380Z,7.41
2018-03-30T09:10:06.372Z,7.37
2018-03-30T09:11:06.351Z,7.44
2018-03-30T09:12:06.349Z,7.44
2018-03-30T09:13:06.323Z,7.44
2018-03-30T09:14:06.308Z,7.41
2018-03-30T09:15:06.301Z,7.26
2018-03-30T09:16:06.285Z,7.30
2018-03-30T09:17:06.267Z,7.26
2018-03-30T09:18:06.254Z,7.36
2018-03-30T09:19:06.241Z,7.21
2018-03-30T09:20:06.227Z,7.42
2018-03-30T09:21:06.210Z,7.24
2018-03-30T09:22:06.196Z,7.32
2018-03-30T09:23:06.187Z,7.45
2018-03-30T09:24:06.168Z,7.54
2018-03-30T09:25:06.158Z,7.54
2018-03-30T09:26:06.143Z,7.67
2018-03-30T09:27:06.127Z,7.84
2018-03-30T09:28:06.113Z,7.74
2018-03-30T09:29:06.102Z,7.82
2018-03-30T09:30:06.092Z,7.77
2018-03-30T09:31:06.068Z,7.74
2018-03-30T09:32:06.055Z,7.73
2018-03-30T09:33:06.038Z,7.66
2018-03-30T09:34:06.034Z,7.66
2018-03-30T09:35:06.014Z,7.67
2018-03-30T09:36:05.998Z,7.71
2018-03-30T09:37:05.984Z,7.66
2018-03-30T09:38:05.978Z,7.54
2018-03-30T09:39:05.966Z,7.52
2018-03-30T09:40:05.952Z,7.47
2018-03-30T09:41:05.937Z,7.45
2018-03-30T09:42:05.914Z,7.54
2018-03-30T09:43:05.903Z,7.45
2018-03-30T09:44:05.893Z,7.42
2018-03-30T09:45:05.870Z,7.45
2018-03-30T09:46:05.860Z,7.50
2018-03-30T09:47:05.846Z,7.44
2018-03-30T09:48:05.828Z,7.34
2018-03-30T09:49:05.819Z,7.39
2018-03-30T09:50:05.808Z,7.50
2018-03-30T09:51:05.786Z,7.45
2018-03-30T09:52:05.774Z,7.51
2018-03-30T09:53:05.757Z,7.57
2018-03-30T09:54:05.743Z,7.50
2018-03-30T09:55:05.731Z,7.42
2018-03-30T09:56:05.716Z,7.42
2018-03-30T09:57:05.705Z,7.39
2018-03-30T09:58:05.690Z,7.44
2018-03-30T09:59:05.674Z,7.58
2018-03-30T10:00:05.659Z,7.55
2018-03-30T10:01:05.695Z,7.63
2018-03-30T10:02:05.632Z,7.62
2018-03-30T10:03:05.615Z,7.63
2018-03-30T10:04:05.602Z,7.63
2018-03-30T10:05:05.586Z,7.67
2018-03-30T10:06:05.573Z,7.79
2018-03-30T10:07:05.560Z,7.88
2018-03-30T10:08:05.547Z,7.73
2018-03-30T10:09:05.537Z,7.76
2018-03-30T10:10:05.519Z,7.76
2018-03-30T10:11:05.503Z,7.84
2018-03-30T10:12:05.493Z,7.92
2018-03-30T10:13:05.474Z,7.85
2018-03-30T10:14:05.458Z,8.00
2018-03-30T10:15:05.445Z,8.03
2018-03-30T10:16:05.433Z,7.99
2018-03-30T10:17:05.416Z,8.18
2018-03-30T10:18:05.463Z,8.24
2018-03-30T10:19:05.397Z,8.22
2018-03-30T10:20:05.380Z,8.28
2018-03-30T10:21:05.368Z,8.39
2018-03-30T10:22:05.349Z,8.37
2018-03-30T10:23:05.342Z,8.36
2018-03-30T10:24:05.326Z,8.54
2018-03-30T10:25:05.308Z,8.52
2018-03-30T10:26:05.293Z,8.67
2018-03-30T10:27:05.281Z,8.75
2018-03-30T10:28:05.272Z,8.89
2018-03-30T10:29:05.254Z,8.75
2018-03-30T10:30:05.256Z,8.79
2018-03-30T10:31:05.228Z,8.76
2018-03-30T10:32:05.220Z,8.76
2018-03-30T10:33:05.208Z,8.88
2018-03-30T10:34:05.184Z,8.94
2018-03-30T10:35:05.172Z,9.16
2018-03-30T10:36:05.225Z,9.27
2018-03-30T10:37:05.142Z,9.35
2018-03-30T10:38:05.133Z,9.41
2018-03-30T10:39:05.118Z,9.50
2018-03-30T10:40:05.108Z,9.59
2018-03-30T10:41:05.093Z,9.68
2018-03-30T10:42:05.079Z,9.60
2018-03-30T10:43:05.066Z,9.60
2018-03-30T10:44:05.053Z,9.73
2018-03-30T10:45:05.040Z,9.80
2018-03-30T10:46:05.027Z,9.78
2018-03-30T10:47:05.017Z,9.88
2018-03-30T10:48:05.002Z,9.80
2018-03-30T10:49:04.990Z,9.89
2018-03-30T10:50:04.984Z,9.77
2018-03-30T10:51:04.964Z,9.78
2018-03-30T10:52:04.956Z,9.70
2018-03-30T10:53:04.939Z,9.65
2018-03-30T10:54:04.927Z,9.60
2018-03-30T10:55:04.916Z,9.71
2018-03-30T10:56:04.909Z,9.77
2018-03-30T10:57:04.894Z,9.98
2018-03-30T10:58:04.883Z,10.06
2018-03-30T10:59:04.872Z,10.04
2018-03-30T11:00:04.853Z,10.06
2018-03-30T11:01:04.842Z,9.99
2018-03-30T11:02:04.829Z,9.74
2018-03-30T11:03:04.824Z,9.67
2018-03-30T11:04:04.806Z,9.74
2018-03-30T11:05:04.796Z,9.70
2018-03-30T11:06:04.780Z,9.73
2018-03-30T11:07:04.770Z,9.81
2018-03-30T11:08:04.763Z,9.93
2018-03-30T11:09:04.750Z,10.04
2018-03-30T11:10:04.731Z,10.25
2018-03-30T11:11:04.720Z,10.28
2018-03-30T11:12:04.707Z,10.32
2018-03-30T11:13:04.693Z,10.26
2018-03-30T11:14:04.682Z,10.34
2018-03-30T11:15:04.670Z,10.34
2018-03-30T11:16:04.671Z,10.51
2018-03-30T11:17:04.645Z,10.78
2018-03-30T11:18:04.648Z,10.91
2018-03-30T11:19:04.627Z,11.12
2018-03-30T11:20:04.612Z,11.17
2018-03-30T11:21:04.596Z,11.31
2018-03-30T11:22:04.594Z,11.31
2018-03-30T11:23:04.577Z,11.33
2018-03-30T11:24:04.565Z,11.21
2018-03-30T11:25:04.552Z,11.28
2018-03-30T11:26:04.545Z,11.20
2018-03-30T11:27:04.529Z,11.38
2018-03-30T11:28:04.516Z,11.35
2018-03-30T11:29:04.508Z,11.33
2018-03-30T11:30:04.501Z,11.31
2018-03-30T11:31:04.481Z,11.39
2018-03-30T11:32:04.472Z,11.51
2018-03-30T11:33:04.458Z,11.36
2018-03-30T11:34:04.448Z,11.23
2018-03-30T11:35:04.439Z,11.28
2018-03-30T11:36:04.438Z,11.42
2018-03-30T11:37:04.424Z,11.33
2018-03-30T11:38:04.404Z,11.44
2018-03-30T11:39:04.402Z,11.46
2018-03-30T11:40:04.381Z,11.60
2018-03-30T11:41:04.369Z,11.64
2018-03-30T11:42:04.364Z,11.54
2018-03-30T11:43:04.346Z,11.60
2018-03-30T11:44:04.334Z,11.70
2018-03-30T11:45:04.323Z,11.77
2018-03-30T11:46:04.325Z,11.74
2018-03-30T11:47:04.302Z,11.84
2018-03-30T11:48:04.289Z,11.98
2018-03-30T11:49:04.278Z,12.05
2018-03-30T11:50:04.269Z,12.05
2018-03-30T11:51:04.257Z,12.18
2018-03-30T11:52:04.245Z,12.18
2018-03-30T11:53:04.233Z,12.12
2018-03-30T11:54:04.229Z,12.01
2018-03-30T11:55:04.218Z,12.12
2018-03-30T11:56:04.205Z,12.03
2018-03-30T11:57:04.194Z,12.00
2018-03-30T11:58:04.181Z,11.97
2018-03-30T11:59:04.176Z,11.93
2018-03-30T12:00:04.161Z,11.90
2018-03-30T12:01:04.146Z,12.01
2018-03-30T12:02:04.140Z,12.05
2018-03-30T12:03:04.125Z,12.13
2018-03-30T12:04:04.120Z,12.07
2018-03-30T12:05:04.103Z,12.05
2018-03-30T12:06:04.093Z,12.22
2018-03-30T12:07:04.088Z,12.30
2018-03-30T12:08:04.073Z,12.31
2018-03-30T12:09:04.064Z,12.40
2018-03-30T12:10:04.049Z,12.31
2018-03-30T12:11:04.039Z,12.40
2018-03-30T12:12:04.028Z,12.48
2018-03-30T12:13:04.016Z,12.49
2018-03-30T12:14:04.011Z,12.52
2018-03-30T12:15:03.999Z,12.59
2018-03-30T12:16:03.985Z,12.66
2018-03-30T12:17:03.974Z,12.67
2018-03-30T12:18:03.962Z,12.69
2018-03-30T12:19:03.958Z,12.76
2018-03-30T12:20:03.941Z,12.80
2018-03-30T12:21:03.931Z,12.85
2018-03-30T12:22:03.921Z,12.81
2018-03-30T12:23:03.914Z,12.95
2018-03-30T12:24:03.901Z,13.13
2018-03-30T12:25:03.889Z,13.28
2018-03-30T12:26:03.881Z,13.28
2018-03-30T12:27:03.869Z,13.27
2018-03-30T12:28:03.861Z,13.32
2018-03-30T12:29:03.848Z,13.29
2018-03-30T12:30:03.837Z,13.25
2018-03-30T12:31:03.834Z,13.25
2018-03-30T12:32:03.831Z,13.27
2018-03-30T12:33:03.806Z,13.19
2018-03-30T12:34:03.796Z,13.25
2018-03-30T12:35:03.822Z,13.36
2018-03-30T12:36:03.787Z,13.36
2018-03-30T12:37:03.767Z,13.32
2018-03-30T12:38:03.757Z,13.32
2018-03-30T12:39:03.749Z,13.27
2018-03-30T12:40:03.742Z,13.31
2018-03-30T12:41:03.763Z,13.36
2018-03-30T12:42:03.723Z,13.29
2018-03-30T12:43:03.709Z,13.36
2018-03-30T12:44:03.705Z,13.53
2018-03-30T12:45:03.688Z,13.54
2018-03-30T12:46:03.679Z,13.61
2018-03-30T12:47:03.676Z,13.65
2018-03-30T12:48:03.660Z,13.76
2018-03-30T12:49:03.649Z,13.88
2018-03-30T12:50:03.640Z,13.99
2018-03-30T12:51:03.631Z,13.94
2018-03-30T12:52:03.621Z,14.05
2018-03-30T12:53:03.653Z,14.24
2018-03-30T12:54:03.606Z,14.34
2018-03-30T12:55:03.594Z,14.39
2018-03-30T12:56:03.583Z,14.48
2018-03-30T12:57:03.573Z,14.36
2018-03-30T12:58:03.565Z,14.42
2018-03-30T12:59:03.561Z,14.52
2018-03-30T13:00:03.551Z,14.52
2018-03-30T13:01:03.537Z,14.54
2018-03-30T13:02:03.530Z,14.48
2018-03-30T13:03:03.520Z,14.48
2018-03-30T13:04:03.512Z,14.56
2018-03-30T13:05:03.511Z,14.45
2018-03-30T13:06:03.491Z,14.45
2018-03-30T13:07:03.488Z,14.29
2018-03-30T13:08:03.482Z,14.35
2018-03-30T13:09:03.466Z,14.23
2018-03-30T13:10:03.459Z,14.21
2018-03-30T13:11:03.450Z,14.16
2018-03-30T13:12:03.441Z,14.19
2018-03-30T13:13:03.436Z,14.20
2018-03-30T13:14:03.429Z,14.19